フィリップスブルフ の空港の天気 - METARとTAF

プリンセス・ジュリアナ国際空港 ( TNCM / SXM ) - フィリップスブルフ (シント・マールテン島)
飛行場実況気象(Metar)
観測時間05/19 22:00 AST (05/20 02:00 UTC)
風向・風速東北東 4m/s
視程10km以上
天気現象
全天の4割程度の雲 雲底高度 550m
気温27℃
湿度79%
気圧1020hPa
METARTNCM 200200Z 07007KT 9999 SCT018 27/23 Q1020
過去の天気等 Google飛行場航空写真 Wunderground天気予報

過去48時間のMETAR

飛行場予報(TAF)
発表時間: 5/19 18:00 AST (5/19 22:00 UTC)
予報対象時間: 19日20時 AST ~ 20日20時 AST
風向・風速東 5m/s
視程10km以上
全天の4割程度の雲 雲底高度 610m
TNCM 192200Z 2000/2024 09010KT 9999 SCT020